createdAt,value
2022-10-25T00:01:44.973Z,32.75
2022-10-25T00:04:13.337Z,35.60
2022-10-25T00:06:41.330Z,35.05
2022-10-25T00:09:09.691Z,34.92
2022-10-25T00:11:37.855Z,34.47
2022-10-25T00:14:08.389Z,39.22
2022-10-25T00:16:38.556Z,37.40
2022-10-25T00:19:06.850Z,40.22
2022-10-25T00:21:34.811Z,38.50
2022-10-25T00:24:02.740Z,37.13
2022-10-25T00:26:30.688Z,41.40
2022-10-25T00:28:58.635Z,39.38
2022-10-25T00:31:27.914Z,40.38
2022-10-25T00:33:55.842Z,41.63
2022-10-25T00:36:26.860Z,37.58
2022-10-25T00:38:56.949Z,44.35
2022-10-25T00:41:27.035Z,37.88
2022-10-25T00:43:56.802Z,37.75
2022-10-25T00:46:29.513Z,40.38
2022-10-25T00:49:02.385Z,38.42
2022-10-25T00:51:35.745Z,40.90
2022-10-25T00:54:03.860Z,35.80
2022-10-25T00:56:37.922Z,34.85
2022-10-25T00:59:09.198Z,39.53
2022-10-25T01:01:39.246Z,35.50
2022-10-25T01:04:10.915Z,37.67
2022-10-25T01:06:40.000Z,37.97
2022-10-25T01:09:09.660Z,31.48
2022-10-25T01:11:38.000Z,31.83
2022-10-25T01:14:08.075Z,34.60
2022-10-25T01:16:44.796Z,30.90
2022-10-25T01:19:42.232Z,30.25
2022-10-25T01:22:16.279Z,30.92
2022-10-25T01:25:04.282Z,31.60
2022-10-25T01:28:08.379Z,29.58
2022-10-25T01:31:00.202Z,30.80
2022-10-25T01:33:33.093Z,28.10
2022-10-25T01:36:08.203Z,33.63
2022-10-25T01:38:42.705Z,27.00
2022-10-25T01:41:20.894Z,29.45
2022-10-25T01:43:58.976Z,27.30
2022-10-25T01:46:33.665Z,28.55
2022-10-25T01:49:05.357Z,30.23
2022-10-25T01:51:37.027Z,28.38
2022-10-25T01:54:17.654Z,31.42
2022-10-25T01:56:52.115Z,31.27
2022-10-25T01:59:31.467Z,26.88
2022-10-25T02:02:12.834Z,28.50
2022-10-25T02:04:48.653Z,29.50
2022-10-25T02:07:22.831Z,27.85
2022-10-25T02:10:00.648Z,32.93
2022-10-25T02:12:33.899Z,34.17
2022-10-25T02:15:10.012Z,30.57
2022-10-25T02:17:44.922Z,30.67
2022-10-25T02:20:16.467Z,26.57
2022-10-25T02:22:45.473Z,27.80
2022-10-25T02:25:14.990Z,31.40
2022-10-25T02:27:44.338Z,26.13
2022-10-25T02:30:13.520Z,30.50
2022-10-25T02:32:42.963Z,26.70
2022-10-25T02:35:15.631Z,29.73
2022-10-25T02:37:44.159Z,29.13
2022-10-25T02:40:13.348Z,26.33
2022-10-25T02:42:41.329Z,28.33
2022-10-25T02:45:10.260Z,28.43
2022-10-25T02:47:38.288Z,26.20
2022-10-25T02:50:08.087Z,33.87
2022-10-25T02:52:36.014Z,29.27
2022-10-25T02:55:03.971Z,29.00
2022-10-25T02:57:34.644Z,28.77
2022-10-25T03:00:02.913Z,29.23
2022-10-25T03:02:30.879Z,28.63
2022-10-25T03:04:58.823Z,27.83
2022-10-25T03:07:28.130Z,31.40
2022-10-25T03:09:56.072Z,31.80
2022-10-25T03:12:24.070Z,31.00
2022-10-25T03:14:51.982Z,29.50
2022-10-25T03:17:19.936Z,29.63
2022-10-25T03:19:47.861Z,31.30
2022-10-25T03:22:15.791Z,32.17
2022-10-25T03:24:45.075Z,32.70
2022-10-25T03:27:13.067Z,28.33
2022-10-25T03:29:41.104Z,34.23
2022-10-25T03:32:09.058Z,34.40
2022-10-25T03:34:37.027Z,38.50
2022-10-25T03:37:04.959Z,43.10
2022-10-25T03:39:32.884Z,39.50
2022-10-25T03:42:02.210Z,44.83
2022-10-25T03:44:30.130Z,48.07
2022-10-25T03:46:58.056Z,56.03
2022-10-25T03:49:26.210Z,55.07
2022-10-25T03:51:57.127Z,58.37
2022-10-25T03:54:29.277Z,59.47
2022-10-25T03:56:57.469Z,62.87
2022-10-25T03:59:27.028Z,61.07
2022-10-25T04:01:55.596Z,62.63
2022-10-25T04:04:23.653Z,64.37
2022-10-25T04:06:51.614Z,60.27
2022-10-25T04:09:19.706Z,53.97
2022-10-25T04:11:47.673Z,53.17
2022-10-25T04:14:15.725Z,52.37
2022-10-25T04:16:45.006Z,50.03
2022-10-25T04:19:12.970Z,51.60
2022-10-25T04:21:41.224Z,50.17
2022-10-25T04:24:09.228Z,47.60
2022-10-25T04:26:37.714Z,47.30
2022-10-25T04:29:06.398Z,38.80
2022-10-25T04:31:34.572Z,35.00
2022-10-25T04:34:03.998Z,40.60
2022-10-25T04:36:32.511Z,39.03
2022-10-25T04:39:00.510Z,39.97
2022-10-25T04:41:28.551Z,40.40
2022-10-25T04:43:56.535Z,43.33
2022-10-25T04:46:24.576Z,39.57
2022-10-25T04:48:52.502Z,41.27
2022-10-25T04:51:21.852Z,42.10
2022-10-25T04:53:49.774Z,38.80
2022-10-25T04:56:17.693Z,41.53
2022-10-25T04:58:45.662Z,38.43
2022-10-25T05:01:16.238Z,38.87
2022-10-25T05:03:44.292Z,41.87
2022-10-25T05:06:13.987Z,39.37
2022-10-25T05:08:45.355Z,41.70
2022-10-25T05:11:15.129Z,41.53
2022-10-25T05:13:44.933Z,41.20
2022-10-25T05:16:17.215Z,45.63
2022-10-25T05:18:46.638Z,44.27
2022-10-25T05:21:15.427Z,42.50
2022-10-25T05:23:44.957Z,42.83
2022-10-25T05:26:14.404Z,47.17
2022-10-25T05:28:44.320Z,45.10
2022-10-25T05:31:15.306Z,47.67
2022-10-25T05:33:45.275Z,45.80
2022-10-25T05:36:13.971Z,43.83
2022-10-25T05:38:42.446Z,38.77
2022-10-25T05:41:14.915Z,39.23
2022-10-25T05:43:43.447Z,41.27
2022-10-25T05:46:13.766Z,40.30
2022-10-25T05:48:48.134Z,31.37
2022-10-25T05:51:33.202Z,32.13
2022-10-25T05:54:04.460Z,38.30
2022-10-25T05:56:34.845Z,42.57
2022-10-25T05:59:08.952Z,37.97
2022-10-25T06:01:38.429Z,36.47
2022-10-25T06:04:07.178Z,34.03
2022-10-25T06:06:35.826Z,29.73
2022-10-25T06:09:04.439Z,32.53
2022-10-25T06:11:34.529Z,33.47
2022-10-25T06:14:02.487Z,31.30
2022-10-25T06:16:30.665Z,27.67
2022-10-25T06:18:58.595Z,27.67
2022-10-25T06:21:28.487Z,23.20
2022-10-25T06:23:57.244Z,26.05
2022-10-25T06:26:28.611Z,24.93
2022-10-25T06:28:59.525Z,23.13
2022-10-25T06:31:28.174Z,24.23
2022-10-25T06:33:56.092Z,26.43
2022-10-25T06:36:26.973Z,22.10
2022-10-25T06:38:55.136Z,23.58
2022-10-25T06:41:25.152Z,28.10
2022-10-25T06:43:53.229Z,23.40
2022-10-25T06:46:24.868Z,25.63
2022-10-25T06:48:54.597Z,24.40
2022-10-25T06:51:23.604Z,25.50
2022-10-25T06:53:55.909Z,29.83
2022-10-25T06:56:24.488Z,21.23
2022-10-25T06:58:52.469Z,28.15
2022-10-25T07:01:23.953Z,26.63
2022-10-25T07:03:53.838Z,26.73
2022-10-25T07:06:26.229Z,27.02
2022-10-25T07:08:56.034Z,30.52
2022-10-25T07:11:25.257Z,26.20
2022-10-25T07:13:53.606Z,24.45
2022-10-25T07:16:24.082Z,26.42
2022-10-25T07:18:52.368Z,26.98
2022-10-25T07:21:22.211Z,28.95
2022-10-25T07:23:51.466Z,31.92
2022-10-25T07:26:22.047Z,32.22
2022-10-25T07:28:52.167Z,36.95
2022-10-25T07:31:22.894Z,32.55
2022-10-25T07:33:53.954Z,34.03
2022-10-25T07:36:22.409Z,29.70
2022-10-25T07:38:50.359Z,29.35
2022-10-25T07:41:19.151Z,30.60
2022-10-25T07:43:47.172Z,26.00
2022-10-25T07:46:15.350Z,23.17
2022-10-25T07:48:43.292Z,27.20
2022-10-25T07:51:14.783Z,27.45
2022-10-25T07:53:42.973Z,23.85
2022-10-25T07:56:16.089Z,25.33
2022-10-25T07:58:46.904Z,27.83
2022-10-25T08:01:19.797Z,28.35
2022-10-25T08:03:47.858Z,33.25
2022-10-25T08:06:17.235Z,28.65
2022-10-25T08:08:45.483Z,29.23
2022-10-25T08:11:13.566Z,31.60
2022-10-25T08:13:41.622Z,31.23
2022-10-25T08:16:10.053Z,30.50
2022-10-25T08:18:38.047Z,26.67
2022-10-25T08:21:06.320Z,25.43
2022-10-25T08:23:35.659Z,25.67
2022-10-25T08:26:04.334Z,22.67
2022-10-25T08:28:32.361Z,24.73
2022-10-25T08:31:01.173Z,24.60
2022-10-25T08:33:30.192Z,22.77
2022-10-25T08:36:01.082Z,20.90
2022-10-25T08:38:29.221Z,20.27
2022-10-25T08:41:07.005Z,19.33
2022-10-25T08:43:52.969Z,15.77
2022-10-25T08:46:27.254Z,19.07
2022-10-25T08:49:04.087Z,20.83
2022-10-25T08:51:36.867Z,19.53
2022-10-25T08:54:12.831Z,18.67
2022-10-25T08:56:57.027Z,22.70
2022-10-25T08:59:36.508Z,14.47
2022-10-25T09:02:13.947Z,17.55
2022-10-25T09:04:41.994Z,14.45
2022-10-25T09:07:23.433Z,17.10
2022-10-25T09:10:01.886Z,16.27
2022-10-25T09:12:40.509Z,17.15
2022-10-25T09:15:13.752Z,22.48
2022-10-25T09:17:48.892Z,18.20
2022-10-25T09:20:21.624Z,17.50
2022-10-25T09:22:51.650Z,19.23
2022-10-25T09:25:24.419Z,14.43
2022-10-25T09:28:00.202Z,22.33
2022-10-25T09:30:30.995Z,18.35
2022-10-25T09:33:02.788Z,17.57
2022-10-25T09:35:36.179Z,20.80
2022-10-25T09:38:12.032Z,15.88
2022-10-25T09:40:47.901Z,17.20
2022-10-25T09:43:21.301Z,16.50
2022-10-25T09:45:52.775Z,19.52
2022-10-25T09:48:26.538Z,18.60
2022-10-25T09:50:59.891Z,17.23
2022-10-25T09:53:27.884Z,20.75
2022-10-25T09:55:57.292Z,17.10
2022-10-25T09:58:29.092Z,22.98
2022-10-25T10:01:00.074Z,19.33
2022-10-25T10:03:30.517Z,21.48
2022-10-25T10:06:03.028Z,19.48
2022-10-25T10:08:35.252Z,19.20
2022-10-25T10:11:06.331Z,19.60
2022-10-25T10:13:42.585Z,19.40
2022-10-25T10:16:22.012Z,20.70
2022-10-25T10:18:50.122Z,20.35
2022-10-25T10:21:20.911Z,18.20
2022-10-25T10:23:52.612Z,17.77
2022-10-25T10:26:29.278Z,27.07
2022-10-25T10:29:08.862Z,17.65
2022-10-25T10:31:39.624Z,17.70
2022-10-25T10:34:20.529Z,22.02
2022-10-25T10:36:50.103Z,24.57
2022-10-25T10:39:23.084Z,20.85
2022-10-25T10:42:03.319Z,19.98
2022-10-25T10:44:34.855Z,23.55
2022-10-25T10:47:10.997Z,21.27
2022-10-25T10:49:41.095Z,18.88
2022-10-25T10:52:28.873Z,21.15
2022-10-25T10:54:57.934Z,15.82
2022-10-25T10:57:30.899Z,17.48
2022-10-25T11:00:01.334Z,15.32
2022-10-25T11:02:38.087Z,19.48
2022-10-25T11:05:24.095Z,17.52
2022-10-25T11:07:57.339Z,21.60
2022-10-25T11:10:28.795Z,23.92
2022-10-25T11:13:11.731Z,26.58
2022-10-25T11:16:00.466Z,25.58
2022-10-25T11:18:38.904Z,18.83
2022-10-25T11:21:14.523Z,19.27
2022-10-25T11:23:55.042Z,17.60
2022-10-25T11:26:33.015Z,19.67
2022-10-25T11:29:11.215Z,17.90
2022-10-25T11:31:53.581Z,17.05
2022-10-25T11:34:31.299Z,15.15
2022-10-25T11:37:07.914Z,15.88
2022-10-25T11:39:48.753Z,16.73
2022-10-25T11:42:30.642Z,12.93
2022-10-25T11:45:18.606Z,13.98
2022-10-25T11:48:00.039Z,13.65
2022-10-25T11:50:33.838Z,13.93
2022-10-25T11:53:19.667Z,14.43
2022-10-25T11:55:52.991Z,12.65
2022-10-25T11:58:34.839Z,15.45
2022-10-25T12:01:11.821Z,14.85
2022-10-25T12:03:55.833Z,17.45
2022-10-25T12:06:29.673Z,15.18
2022-10-25T12:09:04.554Z,14.18
2022-10-25T12:11:35.528Z,18.92
2022-10-25T12:14:08.725Z,11.55
2022-10-25T12:16:37.550Z,10.32
2022-10-25T12:19:15.308Z,10.93
2022-10-25T12:21:47.406Z,11.98
2022-10-25T12:24:20.786Z,10.20
2022-10-25T12:26:51.466Z,8.25
2022-10-25T12:29:26.427Z,11.20
2022-10-25T12:31:57.928Z,9.07
2022-10-25T12:34:39.499Z,9.55
2022-10-25T12:37:14.464Z,8.23
2022-10-25T12:39:43.973Z,11.63
2022-10-25T12:42:18.352Z,10.98
2022-10-25T12:45:14.397Z,13.25
2022-10-25T12:47:58.721Z,15.35
2022-10-25T12:50:53.277Z,15.35
2022-10-25T12:54:10.109Z,10.73
2022-10-25T12:56:49.288Z,11.73
2022-10-25T12:59:40.624Z,10.50
2022-10-25T13:02:26.185Z,14.45
2022-10-25T13:05:08.747Z,16.42
2022-10-25T13:07:39.116Z,13.43
2022-10-25T13:10:16.165Z,12.73
2022-10-25T13:12:58.460Z,11.65
2022-10-25T13:15:26.481Z,10.85
2022-10-25T13:18:03.557Z,9.35
2022-10-25T13:20:49.477Z,11.75
2022-10-25T13:23:58.473Z,10.00
2022-10-25T13:26:30.686Z,12.35
2022-10-25T13:29:00.616Z,8.23
2022-10-25T13:31:47.886Z,11.75
2022-10-25T13:34:36.515Z,7.50
2022-10-25T13:37:06.953Z,9.15
2022-10-25T13:39:43.524Z,11.60
2022-10-25T13:42:26.472Z,11.80
2022-10-25T13:44:57.203Z,12.30
2022-10-25T13:47:36.524Z,11.57
2022-10-25T13:53:02.490Z,7.97
2022-10-25T13:55:35.984Z,15.02
2022-10-25T13:58:42.494Z,9.65
2022-10-25T14:01:58.832Z,10.00
2022-10-25T14:04:40.522Z,10.18
2022-10-25T14:07:43.252Z,8.43
2022-10-25T14:10:21.748Z,10.38
2022-10-25T14:12:55.654Z,9.27
2022-10-25T14:15:34.614Z,8.88
2022-10-25T14:18:09.233Z,9.10
2022-10-25T14:20:38.219Z,10.65
2022-10-25T14:23:08.948Z,9.82
2022-10-25T14:25:38.615Z,11.32
2022-10-25T14:28:16.560Z,12.45
2022-10-25T14:30:45.660Z,12.10
2022-10-25T14:33:25.832Z,12.18
2022-10-25T14:35:56.575Z,10.68
2022-10-25T14:38:26.498Z,10.23
2022-10-25T14:40:56.639Z,10.43
2022-10-25T14:43:29.846Z,17.05
2022-10-25T14:46:03.508Z,10.50
2022-10-25T14:48:31.713Z,9.43
2022-10-25T14:51:04.529Z,9.95
2022-10-25T14:53:32.879Z,15.35
2022-10-25T14:56:03.310Z,13.85
2022-10-25T14:58:41.231Z,12.90
2022-10-25T15:01:11.684Z,12.05
2022-10-25T15:03:44.089Z,13.02
2022-10-25T15:06:14.200Z,12.38
2022-10-25T15:08:49.200Z,16.65
2022-10-25T15:11:21.143Z,14.57
2022-10-25T15:13:53.222Z,16.75
2022-10-25T15:16:30.663Z,12.55
2022-10-25T15:19:18.346Z,16.35
2022-10-25T15:21:48.668Z,17.42
2022-10-25T15:24:19.579Z,14.00
2022-10-25T15:26:55.355Z,16.73
2022-10-25T15:32:22.338Z,18.25
2022-10-25T15:34:52.205Z,16.27
2022-10-25T15:37:22.347Z,14.25
2022-10-25T15:39:51.784Z,17.92
2022-10-25T15:42:20.433Z,17.00
2022-10-25T15:44:49.712Z,18.40
2022-10-25T15:47:35.575Z,23.95
2022-10-25T15:50:07.639Z,16.48
2022-10-25T15:52:35.575Z,18.52
2022-10-25T15:55:03.848Z,19.50
2022-10-25T15:57:31.784Z,17.63
2022-10-25T16:00:01.087Z,21.25
2022-10-25T16:02:31.871Z,23.67
2022-10-25T16:04:59.813Z,23.20
2022-10-25T16:07:27.813Z,23.70
2022-10-25T16:09:55.784Z,22.65
2022-10-25T16:12:31.267Z,21.40
2022-10-25T16:15:00.643Z,22.83
2022-10-25T16:17:28.649Z,20.38
2022-10-25T16:19:56.629Z,23.60
2022-10-25T16:22:24.661Z,20.55
2022-10-25T16:24:52.602Z,18.67
2022-10-25T16:27:20.761Z,17.63
2022-10-25T16:29:48.676Z,19.60
2022-10-25T16:32:18.657Z,22.35
2022-10-25T16:34:46.597Z,20.83
2022-10-25T16:37:14.560Z,18.63
2022-10-25T16:39:42.502Z,25.92
2022-10-25T16:42:28.551Z,26.05
2022-10-25T16:44:56.597Z,25.70
2022-10-25T16:47:26.378Z,22.48
2022-10-25T16:49:54.363Z,25.00
2022-10-25T16:52:22.676Z,24.10
2022-10-25T16:54:50.610Z,28.05
2022-10-25T16:57:18.568Z,25.75
2022-10-25T16:59:46.618Z,23.23
2022-10-25T17:02:19.721Z,28.58
2022-10-25T17:04:50.248Z,24.92
2022-10-25T17:07:18.264Z,25.00
2022-10-25T17:09:46.233Z,23.20
2022-10-25T17:12:14.254Z,21.77
2022-10-25T17:14:42.225Z,28.05
2022-10-25T17:17:10.255Z,26.58
2022-10-25T17:19:38.320Z,22.00
2022-10-25T17:22:07.619Z,28.02
2022-10-25T17:24:37.617Z,25.80
2022-10-25T17:27:06.546Z,25.75
2022-10-25T17:29:34.647Z,31.88
2022-10-25T17:32:02.586Z,32.17
2022-10-25T17:34:32.141Z,34.10
2022-10-25T17:37:02.187Z,32.43
2022-10-25T17:39:31.745Z,28.13
2022-10-25T17:41:59.683Z,29.20
2022-10-25T17:44:27.616Z,27.33
2022-10-25T17:46:57.369Z,22.42
2022-10-25T17:49:27.529Z,22.55
2022-10-25T17:51:55.489Z,26.37
2022-10-25T17:54:23.436Z,25.20
2022-10-25T17:56:56.432Z,28.88
2022-10-25T17:59:24.461Z,29.27
2022-10-25T18:01:52.519Z,26.35
2022-10-25T18:04:20.544Z,26.85
2022-10-25T18:06:48.619Z,26.80
2022-10-25T18:09:16.607Z,23.88
2022-10-25T18:11:44.906Z,22.73
2022-10-25T18:14:14.272Z,21.73
2022-10-25T18:16:42.427Z,23.45
2022-10-25T18:19:14.514Z,25.75
2022-10-25T18:21:42.646Z,24.45
2022-10-25T18:24:13.588Z,25.75
2022-10-25T18:26:41.754Z,31.83
2022-10-25T18:29:10.903Z,27.98
2022-10-25T18:31:40.242Z,27.27
2022-10-25T18:34:08.204Z,25.52
2022-10-25T18:36:36.197Z,21.60
2022-10-25T18:39:04.477Z,27.77
2022-10-25T18:41:35.175Z,25.02
2022-10-25T18:44:03.788Z,20.48
2022-10-25T18:46:32.681Z,23.73
2022-10-25T18:49:02.043Z,21.13
2022-10-25T18:51:30.568Z,22.90
2022-10-25T18:54:00.176Z,20.93
2022-10-25T18:56:29.301Z,20.17
2022-10-25T18:58:58.971Z,21.17
2022-10-25T19:01:32.800Z,19.83
2022-10-25T19:04:04.582Z,25.13
2022-10-25T19:06:33.278Z,20.60
2022-10-25T19:09:02.917Z,21.37
2022-10-25T19:11:32.891Z,26.90
2022-10-25T19:14:01.420Z,25.30
2022-10-25T19:16:29.346Z,28.38
2022-10-25T19:18:57.299Z,29.02
2022-10-25T19:21:26.580Z,27.95
2022-10-25T19:23:54.585Z,31.83
2022-10-25T19:26:23.155Z,33.95
2022-10-25T19:28:58.081Z,32.15
2022-10-25T19:31:27.227Z,32.83
2022-10-25T19:33:58.510Z,36.15
2022-10-25T19:36:28.005Z,32.15
2022-10-25T19:38:56.040Z,37.03
2022-10-25T19:41:25.705Z,34.08
2022-10-25T19:43:56.336Z,36.40
2022-10-25T19:46:24.339Z,28.25
2022-10-25T19:48:52.254Z,27.23
2022-10-25T19:51:21.752Z,31.83
2022-10-25T19:53:51.102Z,28.88
2022-10-25T19:56:20.682Z,30.90
2022-10-25T19:58:49.497Z,32.58
2022-10-25T20:01:19.411Z,44.17
2022-10-25T20:03:50.413Z,40.55
2022-10-25T20:06:23.449Z,38.42
2022-10-25T20:08:55.014Z,38.63
2022-10-25T20:11:24.327Z,35.80
2022-10-25T20:13:54.264Z,37.80
2022-10-25T20:16:22.551Z,35.35
2022-10-25T20:18:50.624Z,32.83
2022-10-25T20:21:20.791Z,34.17
2022-10-25T20:23:53.712Z,33.97
2022-10-25T20:26:24.410Z,31.73
2022-10-25T20:28:53.814Z,32.37
2022-10-25T20:31:23.011Z,29.90
2022-10-25T20:33:51.483Z,29.60
2022-10-25T20:36:19.497Z,32.43
2022-10-25T20:38:47.501Z,36.85
2022-10-25T20:41:16.998Z,39.20
2022-10-25T20:43:49.121Z,42.40
2022-10-25T20:46:18.216Z,42.03
2022-10-25T20:48:46.501Z,41.00
2022-10-25T20:51:15.683Z,40.97
2022-10-25T20:53:44.168Z,38.97
2022-10-25T20:56:13.323Z,39.80
2022-10-25T20:58:42.315Z,40.20
2022-10-25T21:01:12.295Z,47.50
2022-10-25T21:03:40.675Z,47.07
2022-10-25T21:06:10.541Z,45.13
2022-10-25T21:08:39.192Z,44.13
2022-10-25T21:11:09.409Z,41.50
2022-10-25T21:13:38.029Z,38.60
2022-10-25T21:16:07.112Z,41.47
2022-10-25T21:18:37.608Z,38.37
2022-10-25T21:21:07.881Z,39.28
2022-10-25T21:23:36.152Z,34.60
2022-10-25T21:26:06.276Z,32.80
2022-10-25T21:28:36.618Z,32.45
2022-10-25T21:31:05.669Z,32.13
2022-10-25T21:33:33.667Z,31.58
2022-10-25T21:36:08.083Z,32.90
2022-10-25T21:38:36.181Z,29.05
2022-10-25T21:41:12.429Z,34.38
2022-10-25T21:43:44.123Z,34.65
2022-10-25T21:46:12.451Z,33.40
2022-10-25T21:48:40.638Z,36.30
2022-10-25T21:51:09.988Z,33.42
2022-10-25T21:53:38.056Z,33.20
2022-10-25T21:56:10.311Z,37.17
2022-10-25T21:58:38.396Z,32.50
2022-10-25T22:01:09.697Z,33.07
2022-10-25T22:03:38.013Z,32.17
2022-10-25T22:06:07.157Z,30.10
2022-10-25T22:08:36.642Z,31.13
2022-10-25T22:11:07.956Z,29.63
2022-10-25T22:13:36.325Z,32.70
2022-10-25T22:16:06.792Z,33.07
2022-10-25T22:18:34.765Z,33.47
2022-10-25T22:21:05.197Z,32.40
2022-10-25T22:23:33.834Z,32.43
2022-10-25T22:26:05.290Z,34.30
2022-10-25T22:28:36.684Z,33.03
2022-10-25T22:31:09.712Z,39.50
2022-10-25T22:33:37.682Z,38.53
2022-10-25T22:36:06.950Z,34.47
2022-10-25T22:38:35.178Z,35.03
2022-10-25T22:41:07.391Z,36.37
2022-10-25T22:43:36.611Z,35.17
2022-10-25T22:46:07.148Z,32.00
2022-10-25T22:48:36.728Z,36.50
2022-10-25T22:51:04.946Z,33.73
2022-10-25T22:53:33.570Z,37.00
2022-10-25T22:56:04.818Z,35.10
2022-10-25T22:58:34.059Z,32.73
2022-10-25T23:03:33.495Z,36.40
2022-10-25T23:06:02.230Z,33.70
2022-10-25T23:08:30.915Z,36.67
2022-10-25T23:11:00.483Z,34.37
2022-10-25T23:13:30.349Z,34.17
2022-10-25T23:15:58.355Z,33.03
2022-10-25T23:18:26.838Z,39.17
2022-10-25T23:20:56.557Z,40.73
2022-10-25T23:23:25.388Z,36.57
2022-10-25T23:25:54.466Z,37.27
2022-10-25T23:28:22.711Z,32.17
2022-10-25T23:30:51.989Z,33.33
2022-10-25T23:33:19.939Z,31.77
2022-10-25T23:35:47.903Z,35.70
2022-10-25T23:38:16.132Z,37.33
2022-10-25T23:40:47.174Z,33.97
2022-10-25T23:43:15.319Z,32.27
2022-10-25T23:45:43.654Z,38.77
2022-10-25T23:48:12.947Z,32.50
2022-10-25T23:50:40.853Z,32.10
2022-10-25T23:53:09.454Z,32.93
2022-10-25T23:55:38.665Z,32.03
2022-10-25T23:58:06.741Z,33.40
